Time;durP1;ratioP1;P1;durP2;ratioP2;P2;SDS_P1;SDS_P2;PMS_P1;PMS_P2;Temp;Humidity;BMP_temperature;BMP_pressure;BME280_temperature;BME280_humidity;BME280_pressure;Samples;Min_cycle;Max_cycle;Signal;HPM_P1;HPM_P2
2021/01/29 01:43:40;;;;;;;1.60;0.60;;;;;;;11.67;70.90;94384.66;6955803;28;20227;-71
2021/01/29 01:47:30;;;;;;;3.13;0.73;;;;;;;11.69;71.26;94372.00;6968950;28;20706;-71
2021/01/29 01:50:50;;;;;;;1.03;0.80;;;;;;;11.66;71.09;94353.75;6957175;28;20216;-71
2021/01/29 01:54:23;;;;;;;0.80;0.50;;;;;;;11.58;71.57;94347.41;6970150;28;20222;-71
2021/01/29 01:57:47;;;;;;;0.80;0.73;;;;;;;11.58;71.80;94351.88;6951766;28;20245;-71
2021/01/29 02:01:08;;;;;;;0.90;0.60;;;;;;;11.65;71.48;94346.75;6960232;28;20232;-72
2021/01/29 02:04:33;;;;;;;1.23;0.50;;;;;;;11.52;71.21;94350.72;6959299;28;20241;-71
2021/01/29 02:07:56;;;;;;;2.83;0.60;;;;;;;11.43;71.61;94348.19;6948225;28;20227;-72
2021/01/29 02:11:20;;;;;;;1.17;0.50;;;;;;;11.41;71.94;94327.13;6968279;28;20715;-72
2021/01/29 02:14:41;;;;;;;1.13;0.60;;;;;;;11.46;71.53;94321.31;6957071;28;20217;-71
2021/01/29 02:18:24;;;;;;;0.60;0.60;;;;;;;11.45;71.43;94314.31;6967569;28;20301;-71
2021/01/29 02:21:56;;;;;;;0.70;0.40;;;;;;;11.39;71.14;94299.84;6953569;28;20271;-71
2021/01/29 02:25:42;;;;;;;0.60;0.60;;;;;;;11.35;71.48;94293.22;6975334;28;20226;-71
2021/01/29 02:29:14;;;;;;;0.50;0.50;;;;;;;11.24;70.71;94290.88;6973878;28;20222;-71
2021/01/29 02:33:03;;;;;;;0.53;0.50;;;;;;;11.03;70.92;94275.38;6965360;28;20206;-72
2021/01/29 02:36:35;;;;;;;0.70;0.70;;;;;;;10.94;71.11;94272.88;6947790;28;20232;-72
2021/01/29 02:40:23;;;;;;;0.83;0.50;;;;;;;10.94;72.30;94264.91;6951475;28;20235;-72
2021/01/29 02:44:03;;;;;;;0.40;0.40;;;;;;;10.90;72.21;94240.50;6962303;28;20712;-72
2021/01/29 02:47:32;;;;;;;1.43;0.53;;;;;;;10.86;72.39;94220.56;6970726;28;20711;-72
2021/01/29 02:51:02;;;;;;;0.50;0.50;;;;;;;10.87;71.77;94203.63;6954471;28;20239;-71
2021/01/29 02:54:40;;;;;;;0.97;0.40;;;;;;;10.83;72.12;94194.31;6977164;28;20312;-71
2021/01/29 02:58:09;;;;;;;1.87;0.53;;;;;;;10.91;71.93;94186.38;6975155;28;20218;-71
2021/01/29 03:01:46;;;;;;;0.73;0.60;;;;;;;11.04;71.75;94164.63;6981609;28;20236;-71
2021/01/29 03:05:13;;;;;;;0.60;0.60;;;;;;;11.05;71.03;94161.81;6968876;28;20228;-71
2021/01/29 03:08:38;;;;;;;1.13;0.50;;;;;;;11.14;71.17;94157.34;6927134;28;20279;-71
2021/01/29 03:12:02;;;;;;;0.40;0.40;;;;;;;11.27;71.11;94148.84;6957591;28;20315;-71
2021/01/29 03:15:51;;;;;;;0.60;0.50;;;;;;;11.38;71.01;94144.03;6968283;28;20215;-72
2021/01/29 03:19:29;;;;;;;0.50;0.50;;;;;;;11.40;70.24;94128.75;6964656;28;20225;-72
2021/01/29 03:23:03;;;;;;;0.60;0.60;;;;;;;11.41;70.23;94135.75;6956897;28;20239;-72
2021/01/29 03:26:28;;;;;;;0.50;0.50;;;;;;;11.47;69.94;94119.09;6971913;28;20230;-71
2021/01/29 03:29:56;;;;;;;1.63;0.40;;;;;;;11.47;69.93;94129.72;6970201;28;20226;-72
2021/01/29 03:33:18;;;;;;;0.50;0.50;;;;;;;11.47;69.94;94131.56;6961545;28;20256;-71
2021/01/29 03:36:46;;;;;;;0.40;0.40;;;;;;;11.42;70.15;94117.94;6948974;28;20210;-71
2021/01/29 03:40:07;;;;;;;0.50;0.50;;;;;;;11.38;70.86;94116.63;6943053;28;20246;-71
2021/01/29 03:43:40;;;;;;;0.50;0.50;;;;;;;11.37;71.21;94110.47;6938406;28;20624;-72
2021/01/29 03:47:02;;;;;;;0.50;0.50;;;;;;;11.43;71.23;94127.56;6973052;28;20305;-72
2021/01/29 03:50:44;;;;;;;0.50;0.50;;;;;;;11.42;71.29;94107.31;6972993;28;20718;-72
2021/01/29 03:54:14;;;;;;;0.50;0.40;;;;;;;11.36;71.63;94114.16;6955482;28;20265;-72
2021/01/29 03:57:37;;;;;;;0.30;0.30;;;;;;;11.39;72.27;94091.72;6961438;28;20271;-72
2021/01/29 04:01:07;;;;;;;0.40;0.40;;;;;;;11.29;72.95;94099.03;6976941;28;20226;-72
2021/01/29 04:04:31;;;;;;;0.40;0.40;;;;;;;11.31;73.41;94100.53;6963154;28;20243;-71
2021/01/29 04:07:55;;;;;;;0.50;0.50;;;;;;;11.33;73.77;94103.84;6942790;28;20297;-72
2021/01/29 04:11:23;;;;;;;0.43;0.43;;;;;;;11.43;73.97;94106.31;6950869;28;20223;-71
2021/01/29 04:15:15;;;;;;;0.50;0.50;;;;;;;11.42;74.93;94092.19;6948949;28;20213;-71
2021/01/29 04:18:41;;;;;;;0.70;0.57;;;;;;;11.38;74.62;94088.22;6927084;28;20232;-72
2021/01/29 04:22:17;;;;;;;0.50;0.50;;;;;;;11.48;75.04;94096.00;6933534;28;20754;-71
2021/01/29 04:25:42;;;;;;;0.50;0.50;;;;;;;11.56;74.64;94082.72;6943440;28;20229;-72
2021/01/29 04:29:36;;;;;;;0.40;0.40;;;;;;;11.59;74.49;94079.69;6960604;28;20215;-72
2021/01/29 04:33:05;;;;;;;0.43;0.43;;;;;;;11.58;74.31;94070.88;6955665;28;20700;-72
2021/01/29 04:36:28;;;;;;;0.40;0.40;;;;;;;11.60;74.08;94073.38;6955366;28;20650;-71
2021/01/29 04:39:51;;;;;;;0.60;0.50;;;;;;;11.72;73.68;94076.50;6943396;28;20726;-72
2021/01/29 04:43:32;;;;;;;0.50;0.50;;;;;;;11.76;73.54;94096.47;6945640;28;20227;-72
2021/01/29 04:47:13;;;;;;;0.50;0.50;;;;;;;11.84;72.75;94091.13;6948910;28;21027;-72
2021/01/29 04:51:07;;;;;;;0.70;0.50;;;;;;;11.89;72.86;94072.81;6974246;28;20301;-71
2021/01/29 04:54:59;;;;;;;0.90;0.80;;;;;;;11.76;73.47;94068.06;6969048;28;20233;-71
2021/01/29 04:58:26;;;;;;;0.67;0.50;;;;;;;11.71;74.19;94074.84;6980019;28;20215;-72
2021/01/29 05:02:20;;;;;;;0.40;0.40;;;;;;;11.72;74.18;94058.69;6961373;28;20627;-72
2021/01/29 05:05:43;;;;;;;0.40;0.40;;;;;;;11.70;74.00;94068.69;6966698;28;20599;-72
2021/01/29 05:09:03;;;;;;;0.60;0.57;;;;;;;11.72;74.11;94063.22;6954632;28;20639;-72
2021/01/29 05:12:40;;;;;;;0.97;0.50;;;;;;;11.86;74.31;94066.00;6964462;28;20232;-72
2021/01/29 05:16:28;;;;;;;0.60;0.60;;;;;;;11.99;73.73;94071.59;6961570;28;20230;-72
2021/01/29 05:20:00;;;;;;;0.50;0.50;;;;;;;11.97;73.33;94118.03;6961983;28;20276;-72
2021/01/29 05:23:55;;;;;;;0.60;0.60;;;;;;;11.64;73.09;94072.03;6976778;28;20225;-72
2021/01/29 05:27:39;;;;;;;0.60;0.60;;;;;;;11.42;73.85;94067.44;6965385;28;20245;-72
2021/01/29 05:31:02;;;;;;;0.40;0.40;;;;;;;11.46;73.91;94066.13;6974351;28;20711;-72
2021/01/29 05:34:36;;;;;;;0.87;0.50;;;;;;;11.57;73.64;94068.38;6945462;28;20692;-72
2021/01/29 05:38:25;;;;;;;0.40;0.40;;;;;;;11.60;73.76;94068.91;6966737;28;20597;-72
2021/01/29 05:42:23;;;;;;;1.07;0.50;;;;;;;11.61;74.29;94073.22;6965949;28;20637;-72
2021/01/29 05:46:07;;;;;;;1.13;0.57;;;;;;;11.55;74.03;94046.47;6967723;28;20230;-72
2021/01/29 05:49:50;;;;;;;0.40;0.40;;;;;;;11.52;73.27;94025.53;6953787;28;20230;-72
2021/01/29 05:53:16;;;;;;;0.50;0.50;;;;;;;11.49;73.38;94023.25;6947179;28;20223;-72
2021/01/29 05:57:01;;;;;;;0.63;0.60;;;;;;;11.44;73.48;94036.22;6956026;28;20210;-72
2021/01/29 06:00:52;;;;;;;0.63;0.63;;;;;;;11.45;73.39;94045.84;6972266;28;20234;-72
2021/01/29 06:04:31;;;;;;;0.50;0.50;;;;;;;11.36;73.10;94042.41;6981158;28;20236;-71
2021/01/29 06:07:54;;;;;;;0.60;0.60;;;;;;;11.36;72.92;94028.28;6971488;28;20212;-72
2021/01/29 06:11:48;;;;;;;0.40;0.40;;;;;;;11.47;71.88;94042.00;6963079;28;20273;-72
2021/01/29 06:15:24;;;;;;;0.80;0.80;;;;;;;11.58;71.27;94028.34;6943782;28;20777;-72
2021/01/29 06:19:03;;;;;;;0.60;0.60;;;;;;;11.60;70.61;94038.81;6931367;28;20211;-72
2021/01/29 06:22:51;;;;;;;0.57;0.57;;;;;;;11.61;69.92;94054.63;6949429;28;20225;-72
2021/01/29 06:27:08;;;;;;;0.60;0.60;;;;;;;11.58;69.52;94068.22;6943324;28;20235;-72
2021/01/29 06:30:44;;;;;;;0.50;0.47;;;;;;;11.60;67.88;94076.03;6830987;28;20312;-72
2021/01/29 06:34:10;;;;;;;0.60;0.60;;;;;;;11.65;68.42;94088.81;6866216;28;20220;-72
2021/01/29 06:37:54;;;;;;;0.70;0.70;;;;;;;11.67;68.18;94089.50;6925057;28;20934;-72
2021/01/29 06:41:51;;;;;;;0.47;0.47;;;;;;;11.67;67.97;94108.09;6946157;28;20306;-72
2021/01/29 06:45:37;;;;;;;2.57;0.50;;;;;;;11.64;67.61;94095.97;6935562;28;21028;-71
2021/01/29 06:49:38;;;;;;;0.87;0.67;;;;;;;11.62;67.75;94096.13;6943325;28;20234;-72
2021/01/29 06:53:11;;;;;;;0.53;0.53;;;;;;;11.68;68.07;94094.63;6943569;28;20223;-71
2021/01/29 06:56:34;;;;;;;2.30;0.70;;;;;;;11.61;67.47;94091.00;6943873;28;20272;-72
2021/01/29 07:00:25;;;;;;;0.70;0.50;;;;;;;11.56;66.49;94094.19;6974510;28;20261;-72
2021/01/29 07:04:13;;;;;;;0.80;0.60;;;;;;;11.54;66.88;94120.09;6965993;28;20279;-72
2021/01/29 07:07:58;;;;;;;0.70;0.70;;;;;;;11.63;67.31;94115.56;6923156;28;20226;-72
2021/01/29 07:11:28;;;;;;;0.90;0.70;;;;;;;11.62;66.77;94121.88;6963301;28;20235;-73
2021/01/29 07:15:19;;;;;;;0.77;0.50;;;;;;;11.60;66.62;94122.06;6950827;28;20218;-76
2021/01/29 07:18:42;;;;;;;0.40;0.40;;;;;;;11.49;66.53;94125.09;6967805;28;20276;-74
2021/01/29 07:22:10;;;;;;;0.83;0.60;;;;;;;11.47;66.65;94124.41;6973918;28;20232;-70
2021/01/29 07:25:32;;;;;;;0.93;0.60;;;;;;;11.46;66.79;94143.22;6978870;28;20233;-71
2021/01/29 07:29:14;;;;;;;1.43;0.70;;;;;;;11.51;66.47;94139.06;6961669;28;20264;-71
2021/01/29 07:32:41;;;;;;;0.60;0.60;;;;;;;11.42;66.14;94144.53;6958385;28;20407;-71
2021/01/29 07:36:20;;;;;;;0.73;0.60;;;;;;;11.36;66.77;94137.25;6958961;28;20224;-71
2021/01/29 07:39:46;;;;;;;1.87;0.77;;;;;;;11.22;67.12;94149.34;6964767;28;20288;-71
2021/01/29 07:43:37;;;;;;;1.63;0.90;;;;;;;11.30;66.97;94161.81;6942711;28;20230;-72
2021/01/29 07:47:27;;;;;;;1.93;0.70;;;;;;;11.39;67.37;94164.31;6942227;28;20226;-72
2021/01/29 07:51:09;;;;;;;3.07;0.73;;;;;;;11.51;67.54;94176.25;6918158;28;20663;-71
2021/01/29 07:54:48;;;;;;;1.47;0.77;;;;;;;11.60;68.11;94171.75;6943874;28;20689;-71
2021/01/29 07:58:27;;;;;;;1.67;0.80;;;;;;;11.62;68.34;94183.03;6921149;28;20576;-71
2021/01/29 08:02:13;;;;;;;0.77;0.60;;;;;;;11.52;68.56;94185.03;6933183;28;20704;-72
2021/01/29 08:05:42;;;;;;;1.33;0.87;;;;;;;11.46;68.89;94181.25;6877374;28;20223;-72
2021/01/29 08:09:14;;;;;;;0.80;0.80;;;;;;;11.27;69.76;94191.38;6917990;28;20524;-72
2021/01/29 08:12:46;;;;;;;1.83;0.60;;;;;;;11.35;70.85;94202.84;6936967;28;20567;-72
2021/01/29 08:16:28;;;;;;;1.70;0.73;;;;;;;11.35;69.82;94223.28;6938451;28;20263;-71
2021/01/29 08:20:25;;;;;;;1.10;0.60;;;;;;;11.28;70.25;94204.50;6953561;28;20224;-73
2021/01/29 08:23:58;;;;;;;1.60;1.10;;;;;;;11.40;69.71;94220.94;6947900;28;20273;-70
2021/01/29 08:27:51;;;;;;;2.80;0.70;;;;;;;11.42;69.54;94240.22;6948854;28;20299;-71
2021/01/29 08:31:42;;;;;;;1.53;1.00;;;;;;;11.47;69.45;94244.03;6919197;28;20223;-71
2021/01/29 08:35:22;;;;;;;3.60;0.80;;;;;;;11.47;68.62;94236.06;6948408;28;20211;-72
2021/01/29 08:39:06;;;;;;;1.97;0.83;;;;;;;11.45;68.11;94229.25;6935607;28;20702;-71
2021/01/29 08:42:57;;;;;;;2.17;0.90;;;;;;;11.51;67.85;94236.56;6927263;28;20211;-72
2021/01/29 08:46:39;;;;;;;1.67;0.90;;;;;;;11.48;67.33;94253.69;6936454;28;20323;-72
2021/01/29 08:50:16;;;;;;;3.23;1.20;;;;;;;11.46;67.26;94268.97;6958390;28;20673;-72
2021/01/29 08:54:04;;;;;;;3.37;1.03;;;;;;;11.47;66.82;94265.28;6951675;28;20256;-71
2021/01/29 08:57:26;;;;;;;2.63;1.03;;;;;;;11.44;66.20;94270.97;6963380;28;20669;-71
2021/01/29 09:00:47;;;;;;;2.93;1.07;;;;;;;11.50;66.47;94277.44;6941455;28;20231;-71
2021/01/29 09:04:41;;;;;;;1.60;1.10;;;;;;;11.67;66.05;94267.66;6941348;28;20227;-71
2021/01/29 09:08:04;;;;;;;2.07;0.97;;;;;;;11.69;65.21;94274.44;6938609;28;20234;-71
2021/01/29 09:11:38;;;;;;;2.30;1.00;;;;;;;11.70;64.07;94280.59;6929890;28;20298;-71
2021/01/29 09:15:02;;;;;;;4.97;1.00;;;;;;;11.67;63.43;94273.78;6952844;28;20459;-71
2021/01/29 09:18:30;;;;;;;2.50;0.90;;;;;;;11.65;63.56;94267.81;6948695;28;20211;-71
2021/01/29 09:22:01;;;;;;;2.60;0.80;;;;;;;11.73;63.01;94264.34;6948414;28;20214;-70
2021/01/29 09:25:41;;;;;;;1.77;1.17;;;;;;;11.66;61.35;94277.47;6956251;28;20308;-72
2021/01/29 09:29:26;;;;;;;2.23;1.00;;;;;;;11.54;60.76;94252.19;6954035;28;20221;-71
2021/01/29 09:33:16;;;;;;;4.50;1.10;;;;;;;11.43;62.04;94271.94;6919287;28;20216;-72
2021/01/29 09:36:47;;;;;;;4.23;1.30;;;;;;;11.59;62.25;94268.47;6944178;28;20233;-71
2021/01/29 09:40:08;;;;;;;6.07;1.40;;;;;;;11.67;61.30;94263.13;6939063;28;20250;-72
2021/01/29 09:43:42;;;;;;;4.07;1.60;;;;;;;11.72;61.71;94266.13;6949636;28;20266;-71
2021/01/29 09:47:05;;;;;;;3.03;1.37;;;;;;;11.85;60.98;94255.03;6930459;28;20219;-71
2021/01/29 09:50:28;;;;;;;3.10;1.10;;;;;;;11.90;61.41;94271.31;6938802;28;20219;-71
2021/01/29 09:54:19;;;;;;;4.80;1.67;;;;;;;11.99;61.19;94281.78;6928874;28;20760;-71
2021/01/29 09:58:02;;;;;;;5.60;1.40;;;;;;;11.95;61.12;94285.78;6926045;28;20241;-71
2021/01/29 10:01:25;;;;;;;4.00;1.10;;;;;;;11.91;60.70;94288.94;6942658;28;20605;-71
2021/01/29 10:05:13;;;;;;;3.80;1.30;;;;;;;11.86;61.66;94305.41;6929691;28;20237;-71
2021/01/29 10:08:38;;;;;;;3.40;1.30;;;;;;;11.79;61.59;94316.88;6935610;28;20249;-71
2021/01/29 10:12:04;;;;;;;4.97;1.50;;;;;;;11.56;61.89;94306.88;6909345;28;20598;-71
2021/01/29 10:15:25;;;;;;;4.03;1.17;;;;;;;11.50;62.59;94307.53;6944579;28;20974;-71
2021/01/29 10:19:18;;;;;;;2.07;1.10;;;;;;;11.36;63.02;94302.03;6947849;28;20710;-71
2021/01/29 10:23:16;;;;;;;3.73;1.33;;;;;;;10.92;64.75;94320.81;6917249;28;20252;-72
2021/01/29 10:26:44;;;;;;;2.40;1.30;;;;;;;10.90;65.38;94301.56;6968744;28;20241;-72
2021/01/29 10:30:13;;;;;;;4.30;1.30;;;;;;;10.97;65.49;94313.22;6945980;28;20681;-72
2021/01/29 10:33:35;;;;;;;2.07;1.30;;;;;;;10.96;65.67;94310.72;6965232;28;20222;-72
2021/01/29 10:37:06;;;;;;;4.47;1.10;;;;;;;10.90;65.72;94304.25;6965374;28;20214;-73
2021/01/29 10:40:40;;;;;;;3.30;1.30;;;;;;;10.77;66.28;94307.31;6954381;28;20238;-73
2021/01/29 10:44:07;;;;;;;3.97;1.07;;;;;;;10.59;67.73;94317.22;6952297;28;20227;-72
2021/01/29 10:47:39;;;;;;;4.13;1.37;;;;;;;10.48;68.26;94312.19;6964791;28;20702;-72
2021/01/29 10:51:15;;;;;;;3.60;1.30;;;;;;;10.43;68.66;94308.34;6951082;28;20687;-72
2021/01/29 10:54:39;;;;;;;4.60;1.40;;;;;;;10.43;68.45;94308.34;6956890;28;20237;-72
2021/01/29 10:58:40;;;;;;;4.27;1.40;;;;;;;10.56;68.69;94306.91;6952181;28;20268;-73
2021/01/29 11:02:04;;;;;;;4.00;1.30;;;;;;;10.69;67.36;94319.75;6878566;28;20222;-72
2021/01/29 11:05:27;;;;;;;4.27;1.33;;;;;;;10.71;67.82;94307.97;6951325;28;20268;-72
2021/01/29 11:08:56;;;;;;;3.97;1.17;;;;;;;10.73;66.92;94324.56;6934550;28;20268;-72
2021/01/29 11:12:36;;;;;;;3.57;1.23;;;;;;;10.65;66.88;94327.22;6931202;28;20223;-75
2021/01/29 11:16:01;;;;;;;2.93;1.27;;;;;;;10.73;67.70;94324.56;6951066;28;20599;-75
2021/01/29 11:19:24;;;;;;;3.67;0.93;;;;;;;10.88;67.31;94324.81;6946942;28;20218;-77
2021/01/29 11:22:46;;;;;;;4.47;1.03;;;;;;;11.06;66.58;94316.75;6978019;28;20212;-76
2021/01/29 11:26:31;;;;;;;2.30;0.80;;;;;;;11.09;66.41;94321.72;6977343;28;20657;-76
2021/01/29 11:30:19;;;;;;;4.57;1.10;;;;;;;11.15;66.08;94321.06;6966861;28;20630;-75
2021/01/29 11:33:42;;;;;;;4.10;1.00;;;;;;;11.07;66.16;94316.56;6947124;28;20222;-74
2021/01/29 11:37:23;;;;;;;2.63;1.10;;;;;;;11.15;66.18;94316.59;6924972;28;20222;-74
2021/01/29 11:41:30;;;;;;;2.43;1.03;;;;;;;11.28;65.96;94316.13;6912882;28;20308;-74
2021/01/29 11:45:11;;;;;;;3.70;1.13;;;;;;;11.34;65.19;94317.28;6899289;28;20215;-76
2021/01/29 11:48:36;;;;;;;2.57;1.10;;;;;;;11.37;65.00;94317.78;6923170;28;20221;-75
2021/01/29 11:51:59;;;;;;;4.00;1.27;;;;;;;11.57;65.30;94319.13;6918820;28;20252;-74
2021/01/29 11:55:29;;;;;;;3.93;1.40;;;;;;;11.57;63.07;94303.19;6957182;28;20218;-74
2021/01/29 11:59:25;;;;;;;7.43;1.93;;;;;;;11.67;62.71;94304.88;6958342;28;20256;-76
2021/01/29 12:02:56;;;;;;;4.03;1.40;;;;;;;11.70;61.54;94310.69;6937172;28;20211;-73
2021/01/29 12:06:21;;;;;;;6.23;2.13;;;;;;;11.84;61.82;94295.91;6956026;28;20621;-72
2021/01/29 12:09:51;;;;;;;5.33;2.30;;;;;;;12.01;60.25;94297.59;6946246;28;20723;-73
2021/01/29 12:13:17;;;;;;;5.97;1.57;;;;;;;11.82;58.61;94282.78;6936270;28;20590;-72
2021/01/29 12:16:38;;;;;;;5.00;1.70;;;;;;;11.77;58.99;94278.97;6940967;28;20205;-72
2021/01/29 12:20:02;;;;;;;6.10;1.73;;;;;;;11.46;59.19;94300.03;6977648;28;20225;-73
2021/01/29 12:23:34;;;;;;;7.70;2.20;;;;;;;11.67;59.43;94281.75;6933656;28;20218;-74
2021/01/29 12:26:58;;;;;;;4.40;1.80;;;;;;;11.86;57.91;94268.16;6939709;28;20214;-74
2021/01/29 12:30:29;;;;;;;3.90;1.60;;;;;;;12.02;58.78;94246.84;6948922;28;20273;-73
2021/01/29 12:33:54;;;;;;;3.70;1.40;;;;;;;12.12;58.51;94246.66;6947012;28;20203;-72
2021/01/29 12:37:22;;;;;;;6.07;1.90;;;;;;;12.30;58.37;94249.13;6948900;28;20226;-74
2021/01/29 12:40:49;;;;;;;4.43;1.60;;;;;;;12.22;57.82;94241.16;6942975;28;20218;-75
2021/01/29 12:44:46;;;;;;;4.23;1.60;;;;;;;11.98;58.19;94224.25;6941235;28;20243;-74
2021/01/29 12:48:46;;;;;;;4.30;1.57;;;;;;;11.97;57.39;94235.88;6967683;28;20272;-74
2021/01/29 12:52:20;;;;;;;5.93;1.80;;;;;;;12.04;57.93;94222.72;6964059;28;20229;-75
2021/01/29 12:55:54;;;;;;;5.10;1.60;;;;;;;12.21;57.45;94210.22;6951176;28;20215;-74
2021/01/29 12:59:28;;;;;;;5.90;2.07;;;;;;;12.30;56.62;94203.88;6954881;28;20249;-74
2021/01/29 13:02:54;;;;;;;8.07;1.73;;;;;;;12.50;56.15;94207.78;6953539;28;20214;-74
2021/01/29 13:06:17;;;;;;;3.53;1.80;;;;;;;12.56;55.34;94196.44;6963582;28;20235;-75
2021/01/29 13:09:43;;;;;;;7.60;1.70;;;;;;;12.37;55.09;94203.00;6941469;28;20671;-73
2021/01/29 13:13:29;;;;;;;8.13;2.23;;;;;;;12.10;55.15;94195.44;6959736;28;20580;-73
2021/01/29 13:17:13;;;;;;;6.67;2.10;;;;;;;11.96;55.65;94206.81;6966074;28;20210;-74
2021/01/29 13:20:35;;;;;;;7.33;1.80;;;;;;;12.02;55.56;94198.94;6974898;28;20228;-75
2021/01/29 13:23:58;;;;;;;5.80;1.50;;;;;;;12.14;55.61;94207.41;6979018;28;20214;-72
2021/01/29 13:27:19;;;;;;;4.93;1.93;;;;;;;12.28;55.04;94182.72;6953071;28;20219;-74
2021/01/29 13:30:41;;;;;;;6.90;1.70;;;;;;;12.23;54.23;94179.75;6945379;28;20218;-73
2021/01/29 13:34:19;;;;;;;8.37;1.53;;;;;;;12.14;54.04;94191.44;6959555;28;20211;-73
2021/01/29 13:37:40;;;;;;;5.97;1.67;;;;;;;12.26;54.10;94181.25;6938407;28;20211;-73
2021/01/29 13:41:16;;;;;;;3.00;1.23;;;;;;;12.28;54.38;94182.72;6981093;28;20301;-74
2021/01/29 13:45:01;;;;;;;8.13;1.70;;;;;;;12.25;53.52;94176.94;6931473;28;20671;-75
2021/01/29 13:48:22;;;;;;;5.63;1.70;;;;;;;11.95;53.09;94187.34;6957347;28;20216;-76
2021/01/29 13:51:46;;;;;;;5.10;1.33;;;;;;;11.93;53.56;94177.84;6944785;28;20226;-74
2021/01/29 13:55:34;;;;;;;5.37;1.60;;;;;;;11.95;53.52;94168.72;6949211;28;20255;-75
2021/01/29 13:59:12;;;;;;;5.03;1.60;;;;;;;12.12;54.25;94172.16;6945443;28;20216;-74
2021/01/29 14:02:49;;;;;;;5.33;1.63;;;;;;;12.14;53.95;94182.63;6947544;28;20212;-76
2021/01/29 14:06:10;;;;;;;3.73;1.37;;;;;;;12.26;53.79;94171.44;6922367;28;20231;-73
2021/01/29 14:09:30;;;;;;;4.83;1.23;;;;;;;12.18;53.77;94166.13;6948248;28;20214;-77
2021/01/29 14:13:25;;;;;;;3.50;1.40;;;;;;;12.07;54.18;94152.41;6931868;28;20214;-75
2021/01/29 14:16:48;;;;;;;5.13;1.63;;;;;;;12.06;53.95;94156.06;6938844;28;20218;-75
2021/01/29 14:20:17;;;;;;;4.70;1.37;;;;;;;11.99;53.85;94145.25;6943758;28;20314;-74
2021/01/29 14:23:42;;;;;;;4.93;1.73;;;;;;;11.75;54.08;94134.69;6922284;28;20213;-74
2021/01/29 14:27:15;;;;;;;3.47;1.40;;;;;;;11.66;54.15;94138.34;6922086;28;20226;-75
2021/01/29 14:30:59;;;;;;;5.93;1.67;;;;;;;11.62;54.32;94141.31;6943487;28;20214;-74
2021/01/29 14:34:58;;;;;;;3.87;1.30;;;;;;;11.61;53.57;94142.34;6946903;28;20226;-73
2021/01/29 14:38:55;;;;;;;4.63;1.77;;;;;;;11.63;54.16;94143.00;6916301;28;21226;-74
2021/01/29 14:42:31;;;;;;;8.93;2.17;;;;;;;11.63;53.83;94153.63;6922579;28;20238;-75
2021/01/29 14:46:25;;;;;;;4.57;1.33;;;;;;;11.75;54.03;94163.94;6943168;28;20268;-73
2021/01/29 14:50:00;;;;;;;6.17;1.73;;;;;;;11.90;53.47;94151.63;6926208;28;20242;-75
2021/01/29 14:53:30;;;;;;;4.60;1.50;;;;;;;11.78;53.43;94164.44;6943227;28;20217;-75
2021/01/29 14:56:59;;;;;;;4.07;1.40;;;;;;;11.63;53.38;94179.38;6954167;28;20229;-75
2021/01/29 15:00:35;;;;;;;5.17;1.83;;;;;;;11.60;53.68;94183.22;6930768;28;20222;-75
2021/01/29 15:04:03;;;;;;;4.13;1.60;;;;;;;11.51;54.16;94181.59;6925605;28;20219;-75
2021/01/29 15:07:35;;;;;;;3.90;1.17;;;;;;;11.11;55.54;94190.41;6933051;28;20218;-75
2021/01/29 15:11:00;;;;;;;2.57;1.00;;;;;;;10.82;56.75;94197.97;6941840;28;20260;-76
2021/01/29 15:14:56;;;;;;;2.73;1.00;;;;;;;10.55;57.77;94188.47;6951866;28;20297;-75
2021/01/29 15:18:21;;;;;;;1.40;0.83;;;;;;;10.49;58.18;94217.47;6848288;28;20234;-75
2021/01/29 15:21:44;;;;;;;1.97;0.73;;;;;;;10.51;59.32;94186.31;6926995;28;20583;-75
2021/01/29 15:25:27;;;;;;;2.20;0.93;;;;;;;10.50;60.93;94181.97;6942127;28;20232;-75
2021/01/29 15:28:52;;;;;;;1.20;0.80;;;;;;;10.38;60.06;94184.09;6944327;28;20218;-74
2021/01/29 15:32:42;;;;;;;2.83;1.17;;;;;;;10.35;60.76;94172.97;6941317;28;20219;-75
2021/01/29 15:36:15;;;;;;;2.37;0.90;;;;;;;10.19;60.53;94165.78;6936498;28;20211;-74
2021/01/29 15:39:36;;;;;;;3.30;1.20;;;;;;;10.15;60.85;94167.06;6962445;28;20729;-75
2021/01/29 15:43:18;;;;;;;2.33;0.70;;;;;;;10.21;60.96;94169.94;6930834;28;20271;-75
2021/01/29 15:46:46;;;;;;;1.83;1.03;;;;;;;10.15;61.64;94144.03;6948610;28;20303;-73
2021/01/29 15:50:07;;;;;;;3.23;1.20;;;;;;;10.09;61.91;94138.53;6957223;28;20290;-75
2021/01/29 15:53:49;;;;;;;1.60;0.90;;;;;;;10.16;62.14;94135.09;6930240;28;20577;-77
2021/01/29 15:57:24;;;;;;;3.00;1.30;;;;;;;10.29;62.38;94135.47;6945030;28;22536;-75
2021/01/29 16:00:49;;;;;;;1.30;0.80;;;;;;;10.38;62.90;94144.28;6946711;28;20224;-75
2021/01/29 16:04:35;;;;;;;1.83;1.10;;;;;;;10.52;62.73;94135.69;6941873;28;20234;-75
2021/01/29 16:08:03;;;;;;;4.27;1.70;;;;;;;10.28;61.60;94131.16;6920816;28;20948;-77
2021/01/29 16:11:26;;;;;;;3.27;1.20;;;;;;;10.28;62.47;94127.66;6945424;28;20221;-74
2021/01/29 16:14:52;;;;;;;3.30;1.10;;;;;;;10.29;62.45;94122.22;6946055;28;20219;-77
2021/01/29 16:18:22;;;;;;;4.07;1.50;;;;;;;10.38;62.53;94127.53;6928900;28;20294;-76
2021/01/29 16:21:42;;;;;;;2.97;1.40;;;;;;;10.46;62.20;94146.16;6951808;28;20669;-75
2021/01/29 16:25:03;;;;;;;3.53;1.50;;;;;;;10.51;62.59;94149.16;6981050;28;20733;-77
2021/01/29 16:28:24;;;;;;;3.17;1.37;;;;;;;10.40;61.76;94144.97;6957178;28;20629;-76
2021/01/29 16:31:48;;;;;;;5.03;1.30;;;;;;;10.32;62.27;94158.19;6966674;28;20260;-74
2021/01/29 16:35:37;;;;;;;5.13;1.23;;;;;;;10.15;62.00;94141.38;6917657;28;20306;-74
2021/01/29 16:39:09;;;;;;;4.33;1.10;;;;;;;9.96;63.22;94140.81;6946946;28;20306;-74
2021/01/29 16:42:31;;;;;;;3.47;1.10;;;;;;;9.72;64.70;94133.53;6950995;28;20223;-74
2021/01/29 16:45:57;;;;;;;5.23;1.30;;;;;;;9.63;65.98;94121.25;6958213;28;20226;-75
2021/01/29 16:49:24;;;;;;;3.80;1.73;;;;;;;9.72;66.11;94118.47;6951672;28;20225;-75
2021/01/29 16:52:56;;;;;;;3.37;1.20;;;;;;;9.79;65.92;94106.25;6951666;28;20218;-75
2021/01/29 16:56:22;;;;;;;5.57;1.50;;;;;;;9.85;66.39;94100.34;6957496;28;20219;-74
2021/01/29 16:59:43;;;;;;;6.60;2.23;;;;;;;9.78;65.51;94120.50;6964770;28;20243;-75
2021/01/29 17:03:05;;;;;;;7.20;1.70;;;;;;;9.79;65.92;94122.16;6947800;28;20260;-74
2021/01/29 17:06:32;;;;;;;7.30;1.90;;;;;;;9.76;65.80;94140.19;6936047;28;20231;-75
2021/01/29 17:09:52;;;;;;;4.70;2.00;;;;;;;9.73;66.10;94144.00;6931019;28;20603;-74
2021/01/29 17:13:14;;;;;;;7.60;2.00;;;;;;;9.65;66.87;94143.13;6963224;28;20686;-75
2021/01/29 17:16:36;;;;;;;5.83;1.67;;;;;;;9.68;67.55;94154.25;6947173;28;20706;-74
2021/01/29 17:20:00;;;;;;;9.50;2.13;;;;;;;9.51;67.09;94181.63;6955377;28;20231;-74
2021/01/29 17:23:24;;;;;;;8.97;2.13;;;;;;;9.47;68.74;94230.63;6946615;28;20584;-75
2021/01/29 17:26:50;;;;;;;3.13;1.40;;;;;;;9.21;69.90;94219.16;6951885;28;20297;-75
2021/01/29 17:30:21;;;;;;;1.70;1.10;;;;;;;8.85;70.23;94197.97;6935418;28;20224;-75
2021/01/29 17:33:49;;;;;;;1.20;0.90;;;;;;;8.61;70.26;94222.41;6950727;28;20262;-75
2021/01/29 17:37:19;;;;;;;1.57;0.90;;;;;;;8.50;72.97;94249.06;6929607;28;20223;-75
2021/01/29 17:40:47;;;;;;;0.97;0.63;;;;;;;8.42;72.48;94235.75;6946872;28;20241;-75
2021/01/29 17:44:15;;;;;;;2.97;1.00;;;;;;;8.11;73.60;94240.47;6946030;28;20227;-74
2021/01/29 17:47:45;;;;;;;1.17;0.80;;;;;;;7.85;76.06;94286.19;6956466;28;20224;-74
2021/01/29 17:51:28;;;;;;;1.20;0.70;;;;;;;7.41;75.93;94251.53;6952931;28;20222;-74
2021/01/29 17:54:49;;;;;;;2.53;1.03;;;;;;;7.34;79.05;94274.22;6962791;28;20231;-74
2021/01/29 17:58:15;;;;;;;1.40;1.00;;;;;;;7.30;78.86;94247.22;6944281;28;20219;-74
2021/01/29 18:01:41;;;;;;;2.10;0.80;;;;;;;7.28;78.87;94261.56;6966966;28;20245;-74
2021/01/29 18:05:11;;;;;;;2.63;0.90;;;;;;;7.36;78.57;94242.34;6963344;28;20711;-75
2021/01/29 18:08:49;;;;;;;1.53;1.03;;;;;;;7.46;78.12;94232.59;6956389;28;20230;-76
2021/01/29 18:12:18;;;;;;;1.67;0.70;;;;;;;7.56;77.65;94228.97;6949892;28;20280;-75
2021/01/29 18:15:45;;;;;;;4.50;1.30;;;;;;;7.63;76.30;94222.16;6971587;28;20613;-75
2021/01/29 18:19:05;;;;;;;2.80;1.20;;;;;;;7.77;76.34;94234.06;6949978;28;20219;-75
2021/01/29 18:22:26;;;;;;;5.23;1.30;;;;;;;7.81;75.16;94218.75;6978575;28;20215;-75
2021/01/29 18:25:47;;;;;;;6.10;1.73;;;;;;;7.83;74.86;94230.84;6958101;28;20226;-75
2021/01/29 18:29:10;;;;;;;5.53;1.47;;;;;;;8.02;75.31;94254.56;6953349;28;20222;-75